createdAt,value
2023-04-14T00:09:30.117Z,98.50
2023-04-14T00:19:31.836Z,98.30
2023-04-14T00:29:33.588Z,98.40
2023-04-14T00:39:35.393Z,98.50
2023-04-14T00:49:37.902Z,98.70
2023-04-14T00:59:39.596Z,98.60
2023-04-14T01:09:41.272Z,98.70
2023-04-14T01:20:00.006Z,98.90
2023-04-14T01:30:35.232Z,98.90
2023-04-14T01:40:40.959Z,99.10
2023-04-14T01:50:43.302Z,99.20
2023-04-14T02:00:46.001Z,99.10
2023-04-14T02:10:49.995Z,99.10
2023-04-14T02:20:53.899Z,99.20
2023-04-14T02:30:58.515Z,98.90
2023-04-14T02:41:02.928Z,99.20
2023-04-14T02:51:07.121Z,99.20
2023-04-14T03:01:09.743Z,99.10
2023-04-14T03:11:13.998Z,99.20
2023-04-14T03:21:18.566Z,99.10
2023-04-14T03:31:22.883Z,98.90
2023-04-14T03:41:26.496Z,99.00
2023-04-14T03:51:32.163Z,99.00
2023-04-14T04:01:34.505Z,99.20
2023-04-14T04:11:37.865Z,99.20
2023-04-14T04:21:42.164Z,98.80
2023-04-14T04:31:43.998Z,98.70
2023-04-14T04:41:46.371Z,98.70
2023-04-14T04:51:48.335Z,98.90
2023-04-14T05:01:50.473Z,99.10
2023-04-14T05:11:52.212Z,99.30
2023-04-14T05:21:55.631Z,99.20
2023-04-14T05:31:57.309Z,98.70
2023-04-14T05:41:59.993Z,99.00
2023-04-14T05:52:01.778Z,98.90
2023-04-14T06:02:07.233Z,98.70
2023-04-14T06:22:11.858Z,98.40
2023-04-14T06:32:13.579Z,98.60
2023-04-14T06:42:15.506Z,98.40
2023-04-14T06:52:17.185Z,98.40
2023-04-14T07:02:18.892Z,98.50
2023-04-14T07:12:20.581Z,98.80
2023-04-14T07:22:22.216Z,98.20
2023-04-14T07:32:24.137Z,98.10
2023-04-14T07:42:26.368Z,97.80
2023-04-14T07:52:28.924Z,97.60
2023-04-14T08:02:31.675Z,97.80
2023-04-14T08:12:33.451Z,97.40
2023-04-14T08:22:35.232Z,97.10
2023-04-14T08:32:37.131Z,96.50
2023-04-14T08:42:38.828Z,95.30
2023-04-14T08:52:41.977Z,94.60
2023-04-14T09:02:44.624Z,94.10
2023-04-14T09:12:47.138Z,92.70
2023-04-14T09:22:48.902Z,92.30
2023-04-14T09:32:55.677Z,90.90
2023-04-14T09:42:58.754Z,90.40
2023-04-14T09:53:04.365Z,89.50
2023-04-14T10:03:06.151Z,85.80
2023-04-14T10:13:08.439Z,86.30
2023-04-14T10:23:11.225Z,82.50
2023-04-14T10:33:14.438Z,83.00
2023-04-14T10:43:16.363Z,76.20
2023-04-14T10:53:18.504Z,74.50
2023-04-14T11:03:20.363Z,74.30
2023-04-14T11:13:22.312Z,73.30
2023-04-14T11:23:28.440Z,75.20
2023-04-14T11:33:35.885Z,67.90
2023-04-14T11:43:38.285Z,67.30
2023-04-14T11:53:40.693Z,65.30
2023-04-14T12:03:43.258Z,64.00
2023-04-14T12:13:46.575Z,61.50
2023-04-14T12:23:49.129Z,62.10
2023-04-14T12:33:51.178Z,58.30
2023-04-14T12:43:52.866Z,57.50
2023-04-14T12:54:07.469Z,58.00
2023-04-14T13:04:09.503Z,57.70
2023-04-14T13:14:11.361Z,55.30
2023-04-14T13:24:13.050Z,55.70
2023-04-14T13:34:14.791Z,55.60
2023-04-14T13:44:17.012Z,55.70
2023-04-14T13:54:18.680Z,56.50
2023-04-14T15:14:35.934Z,30.70
2023-04-14T15:24:37.691Z,32.60
2023-04-14T15:34:39.388Z,32.80
2023-04-14T15:44:41.070Z,35.90
2023-04-14T15:54:42.718Z,36.30
2023-04-14T16:04:44.471Z,37.50
2023-04-14T16:14:46.353Z,39.60
2023-04-14T16:24:48.053Z,40.20
2023-04-14T16:34:49.775Z,41.00
2023-04-14T16:44:52.799Z,43.60
2023-04-14T16:54:54.603Z,44.40
2023-04-14T17:04:58.249Z,45.50
2023-04-14T17:15:00.703Z,46.30
2023-04-14T17:25:04.726Z,47.90
2023-04-14T17:35:07.057Z,48.60
2023-04-14T17:45:09.109Z,49.20
2023-04-14T17:55:11.007Z,50.40
2023-04-14T18:05:13.151Z,51.00
2023-04-14T18:15:17.927Z,51.80
2023-04-14T18:25:20.331Z,52.90
2023-04-14T18:35:22.129Z,53.50
2023-04-14T18:45:23.767Z,54.80
2023-04-14T18:55:25.455Z,56.20
2023-04-14T19:05:27.222Z,57.10
2023-04-14T19:15:29.343Z,57.60
2023-04-14T19:25:31.232Z,58.10
2023-04-14T19:35:33.010Z,58.80
2023-04-14T19:45:34.824Z,59.80
2023-04-14T19:55:36.472Z,60.40
2023-04-14T20:05:38.254Z,61.30
2023-04-14T20:15:40.282Z,62.60
2023-04-14T20:25:43.985Z,62.90
2023-04-14T20:35:45.818Z,65.50
2023-04-14T20:45:49.826Z,66.30
2023-04-14T20:55:51.817Z,67.50
2023-04-14T21:05:53.555Z,68.40
2023-04-14T21:15:56.258Z,70.70
2023-04-14T21:25:59.846Z,73.60
2023-04-14T21:36:02.211Z,74.50
2023-04-14T21:46:05.159Z,79.00
2023-04-14T21:56:10.387Z,81.60
2023-04-14T22:06:13.532Z,82.20
2023-04-14T22:16:16.472Z,83.70
2023-04-14T22:26:18.293Z,85.20
2023-04-14T22:36:20.081Z,86.50
2023-04-14T22:46:21.839Z,87.40
2023-04-14T22:56:23.505Z,87.60
2023-04-14T23:06:25.179Z,88.50
2023-04-14T23:16:27.491Z,89.50
2023-04-14T23:26:29.498Z,90.20
2023-04-14T23:36:31.804Z,90.50
2023-04-14T23:46:34.156Z,90.70
2023-04-14T23:56:36.609Z,90.90
